• Join FlightAware (Why Join?)
  • Login
  • US Flag 
07:41AM EDT


 

Airport Tracker/Info


-or-


 

Live Flight TrackerFlight Track Log ✈ UPS1122 ✈ 07-Aug-2013 ✈ KPHL - KBDL

Flight Track Log - Related Links

Times and Time Zones

All times are in EDT time to prevent confusion due to time zone crossing. See the UPS1122 flight status page for this flight to view local times or setup timezone preferences in your user account.

Time Position Orientation Groundspeed Altitude Reporting Facility
EDT Latitude Longitude Course Direction KTS MPH feet Rate Location/Type
03:51AM 39.8659 -75.2506 74° East 155 178 400  Level FlightAware ADS-B
03:51AM 39.8675 -75.2438 73° East 157 181 800 2,760 Climbing FlightAware ADS-B
03:51AM 39.8691 -75.2373 72° East 157 181 1,100 1,800 Climbing FlightAware ADS-B
03:52AM 39.8723 -75.2252 71° East 170 196 1,400 780 Climbing FlightAware ADS-B
03:52AM 39.8766 -75.2088 71° East 190 219 1,500 960 Climbing FlightAware ADS-B
03:52AM 39.8813 -75.1910 71° East 212 244 1,900 1,980 Climbing FlightAware ADS-B
03:52AM 39.8829 -75.1845 72° East 217 250 2,200 2,400 Climbing FlightAware ADS-B
03:52AM 39.8839 -75.1794 76° East 220 253 2,300 2,220 Climbing FlightAware ADS-B
03:52AM 39.8846 -75.1732 82° East 224 258 2,500 2,220 Climbing FlightAware ADS-B
03:52AM 39.8847 -75.1683 88° East 229 264 2,600 1,320 Climbing FlightAware ADS-B
03:52AM 39.8843 -75.1612 94° East 236 272 2,700 1,620 Climbing FlightAware ADS-B
03:53AM 39.8829 -75.1526 102° East 243 280 2,900 2,400 Climbing FlightAware ADS-B
03:53AM 39.8780 -75.1289 105° East 261 300 3,600 2,880 Climbing FlightAware ADS-B
03:53AM 39.8730 -75.1052 105° East 269 310 4,400 3,240 Climbing FlightAware ADS-B
03:53AM 39.8707 -75.0944 106° East 271 312 4,800 3,600 Climbing FlightAware ADS-B
03:53AM 39.8654 -75.0683 105° East 272 313 5,800 3,420 Climbing FlightAware ADS-B
03:54AM 39.8589 -75.0384 106° East 284 327 6,800 3,420 Climbing FlightAware ADS-B
03:54AM 39.8556 -75.0222 105° East 285 328 7,400 3,360 Climbing FlightAware ADS-B
03:54AM 39.8514 -74.9969 102° East 289 333 8,200 3,060 Climbing FlightAware ADS-B
03:54AM 39.8470 -74.9704 102° East 295 339 9,000 3,240 Climbing FlightAware ADS-B
03:55AM 39.8420 -74.9418 103° East 300 345 9,900 2,400 Climbing FlightAware ADS-B
03:55AM 39.8308 -74.8865 105° East 330 380 10,900 1,740 Climbing FlightAware ADS-B
03:56AM 39.8184 -74.8248 105° East 365 420 11,700 1,920 Climbing FlightAware ADS-B
03:56AM 39.8102 -74.7828 104° East 375 432 12,500 2,460 Climbing FlightAware ADS-B
03:56AM 39.8082 -74.7598 96° East 379 436 12,900 2,460 Climbing FlightAware ADS-B
03:56AM 39.8118 -74.7286 81° East 382 440 13,500 2,520 Climbing FlightAware ADS-B
03:57AM 39.8144 -74.7191 70° East 383 441 13,700 2,460 Climbing FlightAware ADS-B
03:57AM 39.8201 -74.7047 63° Northeast 383 441 14,000 2,760 Climbing FlightAware ADS-B
03:57AM 39.8265 -74.6931 54° Northeast 384 442 14,300 3,000 Climbing FlightAware ADS-B
03:57AM 39.8339 -74.6830 46° Northeast 384 442 14,600 2,820 Climbing FlightAware ADS-B
03:57AM 39.8779 -74.6403 37° Northeast 392 451 16,000 2,580 Climbing FlightAware ADS-B
03:58AM 39.9254 -74.5976 35° Northeast 401 461 17,300 2,460 Climbing FlightAware ADS-B
03:58AM 39.9729 -74.5545 35° Northeast 409 471 18,600 2,400 Climbing FlightAware ADS-B
03:59AM 40.0204 -74.5108 35° Northeast 416 479 19,800 2,280 Climbing FlightAware ADS-B
03:59AM 40.0681 -74.4670 35° Northeast 423 487 20,900 2,460 Climbing FlightAware ADS-B
04:00AM 40.1162 -74.4225 35° Northeast 411 473 22,300 1,920 Climbing FlightAware ADS-B
04:00AM 40.1703 -74.3725 35° Northeast 396 456 23,000 600 Climbing FlightAware ADS-B
04:01AM 40.2153 -74.3313 35° Northeast 406 467 23,000  Level FlightAware ADS-B
04:02AM 40.2618 -74.2884 35° Northeast 408 470 23,000  Level FlightAware ADS-B
04:02AM 40.3088 -74.2448 35° Northeast 408 470 23,000  Level FlightAware ADS-B
04:03AM 40.3553 -74.2014 35° Northeast 407 468 23,000  Level FlightAware ADS-B
04:03AM 40.4038 -74.1560 35° Northeast 407 468 23,000  Level FlightAware ADS-B
04:04AM 40.4506 -74.1121 36° Northeast 408 470 23,000  Level FlightAware ADS-B
04:04AM 40.4974 -74.0682 35° Northeast 409 471 23,000  Level FlightAware ADS-B
04:05AM 40.5444 -74.0243 35° Northeast 409 471 23,000  Level FlightAware ADS-B
04:05AM 40.5911 -73.9806 35° Northeast 410 472 23,000  Level FlightAware ADS-B
04:06AM 40.6381 -73.9369 35° Northeast 410 472 23,000  Level FlightAware ADS-B
04:06AM 40.6847 -73.8933 35° Northeast 412 474 23,000  Level FlightAware ADS-B
04:07AM 40.7318 -73.8491 35° Northeast 412 474 23,000  Level FlightAware ADS-B
04:07AM 40.7792 -73.8043 36° Northeast 414 476 23,000  Level FlightAware ADS-B
04:08AM 40.8263 -73.7596 36° Northeast 415 478 23,000  Level FlightAware ADS-B
04:08AM 40.8732 -73.7151 36° Northeast 415 478 23,000  Level FlightAware ADS-B
04:09AM 40.9202 -73.6706 36° Northeast 415 478 23,000  Level FlightAware ADS-B
04:09AM 40.9681 -73.6252 36° Northeast 415 478 23,000  Level FlightAware ADS-B
04:10AM 41.0153 -73.5804 36° Northeast 403 464 23,000  Level FlightAware ADS-B
04:10AM 41.0598 -73.5380 36° Northeast 382 440 23,000 -1,500 Level FlightAware ADS-B
04:11AM 41.1036 -73.4964 36° Northeast 396 456 21,500 -3,480 Descending FlightAware ADS-B
04:11AM 41.1501 -73.4522 36° Northeast 415 478 19,500 -3,840 Descending FlightAware ADS-B
04:12AM 41.1987 -73.4056 36° Northeast 425 489 17,600 -3,240 Descending FlightAware ADS-B
04:12AM 41.2528 -73.3537 36° Northeast 417 480 16,000 -3,060 Descending FlightAware ADS-B
04:13AM 41.3250 -73.2840 36° Northeast 418 481 13,400 -2,100 Descending FlightAware
04:14AM 41.3770 -73.2340 36° Northeast 415 478 13,000 -1,980 Descending FlightAware
04:14AM 41.4220 -73.1910 36° Northeast 415 478 10,900 -1,740 Descending FlightAware
04:15AM 41.4740 -73.1440 34° Northeast 350 403 10,700 -180 Descending FlightAware
04:16AM 41.5150 -73.1070 34° Northeast 350 403 10,700  Level FlightAware
04:16AM 41.5570 -73.0690 34° Northeast 350 403 10,700 -2,520 Level FlightAware
04:17AM 41.6425 -73.0067 34° Northeast 248 285 6,300 -2,460 Descending Boston Center
04:18AM 41.6928 -72.9656 31° Northeast 245 282 5,500 -900 Descending Boston Center
04:19AM 41.7511 -72.9158 32° Northeast 229 264 4,500 -1,080 Descending Boston Center
04:19AM 41.7511 -72.9158 32° Northeast 224 258 4,400 -1,080 Descending Boston Center
04:20AM 41.8014 -72.8717 33° Northeast 205 236 3,400 -780 Descending Boston Center
04:21AM 41.8328 -72.8303 44° Northeast 196 226 2,900 -720 Descending Boston Center
04:22AM 41.8642 -72.7886 45° Northeast 178 205 2,000 -840 Descending Boston Center
04:23AM 41.8956 -72.7497 43° Northeast 158 182 1,300 -720 Descending Boston Center
04:24AM 41.9208 -72.7164 44° Northeast 141 162 600 -480 Descending Boston Center
04:25AM 41.9500 -72.6775 45° Northeast 136 157 400 -240 Descending Boston Center
04:29AM 41.9333 -72.6833 217° Southwest  Level FlightAware Approximate
04:36AM 41.9392 -72.6834 217° Southwest  Level Estimated
04:37AM 41.9333 -72.6833 217° Southwest  Level FlightAware Approximate
04:38AM 41.9392 -72.6834 217° Southwest  Level Estimated
04:39AM 41.9333 -72.6833 217° Southwest  Level FlightAware Approximate